Terminal Aerodrome Forecast
Issued by NWS

Home | Current Version | Previous Version | Text Only | Print | Product List | Glossary Off
Versions: 1 2 3 4 5 6 7 8 9 10 11 12 13 14 15 16

000
FTUS43 KABR 151700
TAFATY
TAF
KATY 151723Z 1518/1618 18025G35KT P6SM BKN070
     FM160200 17017KT P6SM OVC040
     FM160800 18009KT P6SM OVC025
     FM161500 VRB03KT P6SM OVC010=

USA.gov is the U.S. government's official web portal to all federal, state and local government web resources and services.